KPTW/PTW METAR and TAF weather

Enter ICAO airport designator
Station Type Date Time Source
KPTW METAR 2022/01/29 13:54 UTC NOAA

KPTW 291354Z AUTO 33012KT 1SM -SN OVC025 M09/M12 A2982 RMK AO2 SLP099 P0000 T10891117


Station Type Date Time Source
KPTW Decoded METAR 2022/01/29 13:54 UTC NOAA

POTTSTOWN LIMERICK AIRPORT, PA, United States (KPTW) 40-14N 075-33W 89M
Jan 29, 2022 - 08:54 AM EST / 2022.01.29 1354 UTC
Wind: from the NNW (330 degrees) at 14 MPH (12 KT):0
Visibility: 1 mile(s):0
Sky conditions: overcast
Weather: light snow
Precipitation last hour: A trace
Temperature: 16.0 F (-8.9 C)
Windchill: 1 F (-17 C):1
Dew Point: 10.9 F (-11.7 C)
Relative Humidity: 80%
Pressure (altimeter): 29.82 in. Hg (1009 hPa)
ob: KPTW 291354Z AUTO 33012KT 1SM -SN OVC025 M09/M12 A2982 RMK AO2 SLP099 P0000 T10891117
cycle: 14

Station Type Date Time Source
KPTW TAF UTC NOAA

Error!

Example: see airport list